createdAt,value
2022-07-25T00:01:20.473Z,65.03
2022-07-25T00:03:47.930Z,65.06
2022-07-25T00:06:18.037Z,65.13
2022-07-25T00:08:45.291Z,65.16
2022-07-25T00:11:12.436Z,65.31
2022-07-25T00:13:39.362Z,65.35
2022-07-25T00:16:06.858Z,65.31
2022-07-25T00:18:34.021Z,65.44
2022-07-25T00:21:01.172Z,64.79
2022-07-25T00:23:28.137Z,65.43
2022-07-25T00:25:55.226Z,65.50
2022-07-25T00:28:22.242Z,65.02
2022-07-25T00:30:49.963Z,65.23
2022-07-25T00:33:17.115Z,65.04
2022-07-25T00:35:44.149Z,65.28
2022-07-25T00:38:11.095Z,65.23
2022-07-25T00:40:38.130Z,65.01
2022-07-25T00:43:05.145Z,65.13
2022-07-25T00:45:32.314Z,65.59
2022-07-25T00:47:59.437Z,66.04
2022-07-25T00:50:26.586Z,65.29
2022-07-25T00:52:53.681Z,65.43
2022-07-25T00:55:21.634Z,65.65
2022-07-25T00:57:48.673Z,66.18
2022-07-25T01:00:17.701Z,66.02
2022-07-25T01:02:46.822Z,65.67
2022-07-25T01:05:13.920Z,65.67
2022-07-25T01:07:41.220Z,65.55
2022-07-25T01:10:09.446Z,65.83
2022-07-25T01:12:51.896Z,66.28
2022-07-25T01:15:20.270Z,66.11
2022-07-25T01:17:47.573Z,66.24
2022-07-25T01:20:26.010Z,66.30
2022-07-25T01:22:54.793Z,65.82
2022-07-25T01:25:23.319Z,66.38
2022-07-25T01:27:55.569Z,66.12
2022-07-25T01:30:24.990Z,65.77
2022-07-25T01:32:52.870Z,65.62
2022-07-25T01:35:20.187Z,65.48
2022-07-25T01:37:47.303Z,65.93
2022-07-25T01:40:15.003Z,65.96
2022-07-25T01:42:43.415Z,66.04
2022-07-25T01:45:12.200Z,66.09
2022-07-25T01:47:39.823Z,65.85
2022-07-25T01:50:07.915Z,65.68
2022-07-25T01:52:36.656Z,65.86
2022-07-25T01:55:04.201Z,65.76
2022-07-25T01:57:33.305Z,65.57
2022-07-25T02:00:06.856Z,65.25
2022-07-25T02:02:33.972Z,65.35
2022-07-25T02:05:01.001Z,65.34
2022-07-25T02:07:28.077Z,65.34
2022-07-25T02:09:56.976Z,65.70
2022-07-25T02:12:24.150Z,65.44
2022-07-25T02:14:51.181Z,65.63
2022-07-25T02:17:18.324Z,65.80
2022-07-25T02:19:45.597Z,65.78
2022-07-25T02:22:12.655Z,65.71
2022-07-25T02:24:39.693Z,65.80
2022-07-25T02:27:06.807Z,65.72
2022-07-25T02:29:33.996Z,65.79
2022-07-25T02:32:00.980Z,66.12
2022-07-25T02:34:28.083Z,65.97
2022-07-25T02:36:56.366Z,65.76
2022-07-25T02:39:23.395Z,65.47
2022-07-25T02:41:50.309Z,66.17
2022-07-25T02:44:17.298Z,66.05
2022-07-25T02:46:44.308Z,66.46
2022-07-25T02:49:12.416Z,66.07
2022-07-25T02:51:39.415Z,65.83
2022-07-25T02:54:06.389Z,65.88
2022-07-25T02:56:33.455Z,65.39
2022-07-25T02:59:00.677Z,66.16
2022-07-25T03:01:27.930Z,65.89
2022-07-25T03:03:55.073Z,65.92
2022-07-25T03:06:22.206Z,65.85
2022-07-25T03:08:49.207Z,66.80
2022-07-25T03:11:16.913Z,66.25
2022-07-25T03:13:44.024Z,66.10
2022-07-25T03:16:11.169Z,65.68
2022-07-25T03:18:38.160Z,65.78
2022-07-25T03:21:05.618Z,65.47
2022-07-25T03:23:32.766Z,65.67
2022-07-25T03:25:59.924Z,66.16
2022-07-25T03:28:26.878Z,65.51
2022-07-25T03:30:54.871Z,65.51
2022-07-25T03:33:21.968Z,65.40
2022-07-25T03:35:49.034Z,65.15
2022-07-25T03:38:16.007Z,65.03
2022-07-25T03:40:42.984Z,64.88
2022-07-25T03:43:10.116Z,65.29
2022-07-25T03:45:37.353Z,64.78
2022-07-25T03:48:04.667Z,64.50
2022-07-25T03:50:31.747Z,64.49
2022-07-25T03:52:58.764Z,64.15
2022-07-25T03:55:25.850Z,64.06
2022-07-25T03:57:53.013Z,63.88
2022-07-25T04:00:20.193Z,63.89
2022-07-25T04:02:47.300Z,63.83
2022-07-25T04:05:14.313Z,63.74
2022-07-25T04:07:41.293Z,63.42
2022-07-25T04:10:09.274Z,62.68
2022-07-25T04:12:36.306Z,63.21
2022-07-25T04:15:03.725Z,63.13
2022-07-25T04:17:30.968Z,62.50
2022-07-25T04:19:58.008Z,63.82
2022-07-25T04:22:24.990Z,63.19
2022-07-25T04:24:51.923Z,63.20
2022-07-25T04:27:18.931Z,62.93
2022-07-25T04:29:45.869Z,62.48
2022-07-25T04:32:13.790Z,62.53
2022-07-25T04:34:41.029Z,62.64
2022-07-25T04:37:08.055Z,61.50
2022-07-25T04:39:35.123Z,60.69
2022-07-25T04:42:02.134Z,60.46
2022-07-25T04:44:31.045Z,60.25
2022-07-25T04:46:59.144Z,60.17
2022-07-25T04:49:26.147Z,60.00
2022-07-25T04:51:53.115Z,59.27
2022-07-25T04:54:20.188Z,59.37
2022-07-25T04:56:47.155Z,59.79
2022-07-25T04:59:15.939Z,59.19
2022-07-25T05:01:42.992Z,58.82
2022-07-25T05:04:10.353Z,58.92
2022-07-25T05:06:37.477Z,58.63
2022-07-25T05:09:04.604Z,58.28
2022-07-25T05:11:31.625Z,58.63
2022-07-25T05:13:58.617Z,57.41
2022-07-25T05:16:38.327Z,57.24
2022-07-25T05:19:06.483Z,57.56
2022-07-25T05:21:33.459Z,57.01
2022-07-25T05:24:00.486Z,56.82
2022-07-25T05:26:27.481Z,56.11
2022-07-25T05:28:54.945Z,55.68
2022-07-25T05:31:21.932Z,55.07
2022-07-25T05:33:49.010Z,54.93
2022-07-25T05:36:16.890Z,54.66
2022-07-25T05:38:43.952Z,54.45
2022-07-25T05:41:10.910Z,53.77
2022-07-25T05:43:38.048Z,53.29
2022-07-25T05:46:06.281Z,51.71
2022-07-25T05:48:33.634Z,49.83
2022-07-25T05:51:00.816Z,48.25
2022-07-25T05:53:27.806Z,48.01
2022-07-25T05:55:55.014Z,46.19
2022-07-25T05:58:27.509Z,45.15
2022-07-25T06:00:57.364Z,45.08
2022-07-25T06:03:24.414Z,44.57
2022-07-25T06:05:51.514Z,43.08
2022-07-25T06:08:18.485Z,43.03
2022-07-25T06:10:45.495Z,41.85
2022-07-25T06:13:13.330Z,40.32
2022-07-25T06:15:44.341Z,40.93
2022-07-25T06:18:12.702Z,42.11
2022-07-25T06:20:39.684Z,41.66
2022-07-25T06:23:08.171Z,40.27
2022-07-25T06:25:35.347Z,40.40
2022-07-25T06:28:02.582Z,40.10
2022-07-25T06:30:29.773Z,37.71
2022-07-25T06:32:56.845Z,38.81
2022-07-25T06:35:24.101Z,39.05
2022-07-25T06:37:51.166Z,41.46
2022-07-25T06:40:18.336Z,39.57
2022-07-25T06:42:47.688Z,38.70
2022-07-25T06:45:15.728Z,36.34
2022-07-25T06:47:44.580Z,36.91
2022-07-25T06:50:15.558Z,36.98
2022-07-25T06:52:43.274Z,37.20
2022-07-25T06:55:12.704Z,35.59
2022-07-25T06:57:40.749Z,36.19
2022-07-25T07:00:11.813Z,34.25
2022-07-25T07:03:08.374Z,35.40
2022-07-25T07:05:37.190Z,34.95
2022-07-25T07:08:04.946Z,35.66
2022-07-25T07:10:32.305Z,34.32
2022-07-25T07:13:15.158Z,32.60
2022-07-25T07:15:50.557Z,31.90
2022-07-25T07:18:19.606Z,29.98
2022-07-25T07:20:47.467Z,30.92
2022-07-25T07:23:16.591Z,29.49
2022-07-25T07:25:46.103Z,28.36
2022-07-25T07:28:13.302Z,29.10
2022-07-25T07:31:13.360Z,28.82
2022-07-25T07:33:27.357Z,31.74
2022-07-25T07:35:56.913Z,30.73
2022-07-25T07:38:25.631Z,28.88
2022-07-25T07:40:53.828Z,28.22
2022-07-25T07:43:23.109Z,27.40
2022-07-25T07:45:52.036Z,27.75
2022-07-25T07:48:19.012Z,28.84
2022-07-25T07:50:46.088Z,26.71
2022-07-25T07:53:13.145Z,29.57
2022-07-25T07:55:48.199Z,27.91
2022-07-25T07:58:18.874Z,27.78
2022-07-25T08:00:49.510Z,26.33
2022-07-25T08:03:21.292Z,25.83
2022-07-25T08:05:49.204Z,28.34
2022-07-25T08:08:16.769Z,28.19
2022-07-25T08:10:47.030Z,28.64
2022-07-25T08:13:21.045Z,27.65
2022-07-25T08:15:52.238Z,27.99
2022-07-25T08:18:19.901Z,28.29
2022-07-25T08:20:48.593Z,26.13
2022-07-25T08:23:16.671Z,25.76
2022-07-25T08:25:44.759Z,26.92
2022-07-25T08:28:12.830Z,26.44
2022-07-25T08:30:41.101Z,26.11
2022-07-25T08:33:13.126Z,26.46
2022-07-25T08:35:42.052Z,25.37
2022-07-25T08:38:11.571Z,25.20
2022-07-25T08:40:39.073Z,25.56
2022-07-25T08:43:06.319Z,26.15
2022-07-25T08:45:33.799Z,24.71
2022-07-25T08:48:12.621Z,23.74
2022-07-25T08:50:40.143Z,23.64
2022-07-25T08:53:32.106Z,22.58
2022-07-25T08:55:54.435Z,23.38
2022-07-25T08:58:21.620Z,23.63
2022-07-25T09:00:48.752Z,25.03
2022-07-25T09:03:15.832Z,23.46
2022-07-25T09:05:43.887Z,24.84
2022-07-25T09:08:20.060Z,23.22
2022-07-25T09:10:52.911Z,25.91
2022-07-25T09:13:23.578Z,24.38
2022-07-25T09:16:00.494Z,22.82
2022-07-25T09:18:28.180Z,20.83
2022-07-25T09:20:59.131Z,21.79
2022-07-25T09:23:38.485Z,20.89
2022-07-25T09:26:14.964Z,19.83
2022-07-25T09:28:53.605Z,20.50
2022-07-25T09:31:20.970Z,20.67
2022-07-25T09:33:59.280Z,20.04
2022-07-25T09:36:26.473Z,19.93
2022-07-25T09:39:00.877Z,20.03
2022-07-25T09:41:39.570Z,21.50
2022-07-25T09:44:29.690Z,21.43
2022-07-25T09:47:13.965Z,21.65
2022-07-25T09:49:44.053Z,20.69
2022-07-25T09:52:12.349Z,19.63
2022-07-25T09:54:40.826Z,20.66
2022-07-25T09:57:07.844Z,20.41
2022-07-25T09:59:36.004Z,19.37
2022-07-25T10:02:50.266Z,20.12
2022-07-25T10:05:51.653Z,20.34
2022-07-25T10:08:20.330Z,19.57
2022-07-25T10:10:47.385Z,18.58
2022-07-25T10:13:18.044Z,19.23
2022-07-25T10:15:53.095Z,18.40
2022-07-25T10:18:27.650Z,18.37
2022-07-25T10:21:25.714Z,19.32
2022-07-25T10:24:07.165Z,21.13
2022-07-25T10:26:40.528Z,21.83
2022-07-25T10:29:13.152Z,21.62
2022-07-25T10:31:51.178Z,21.29
2022-07-25T10:34:31.766Z,20.75
2022-07-25T10:37:14.369Z,20.59
2022-07-25T10:39:48.137Z,19.22
2022-07-25T10:42:21.097Z,19.99
2022-07-25T10:44:53.710Z,21.45
2022-07-25T10:47:26.498Z,22.38
2022-07-25T10:50:34.646Z,20.71
2022-07-25T10:53:07.909Z,20.93
2022-07-25T10:55:37.009Z,20.04
2022-07-25T10:58:22.326Z,19.93
2022-07-25T11:00:51.291Z,21.25
2022-07-25T11:03:18.947Z,21.82
2022-07-25T11:05:51.730Z,21.69
2022-07-25T11:08:22.126Z,20.99
2022-07-25T11:10:53.443Z,20.80
2022-07-25T11:13:20.823Z,21.05
2022-07-25T11:15:48.498Z,21.61
2022-07-25T11:18:15.620Z,22.02
2022-07-25T11:20:45.593Z,22.37
2022-07-25T11:23:12.610Z,21.67
2022-07-25T11:25:42.290Z,20.65
2022-07-25T11:28:09.425Z,21.20
2022-07-25T11:30:36.590Z,22.53
2022-07-25T11:33:04.891Z,21.81
2022-07-25T11:35:33.822Z,21.48
2022-07-25T11:38:03.124Z,21.41
2022-07-25T11:40:32.768Z,20.83
2022-07-25T11:43:00.111Z,21.89
2022-07-25T11:45:34.346Z,21.46
2022-07-25T11:48:11.724Z,20.68
2022-07-25T11:50:43.800Z,19.81
2022-07-25T11:53:14.657Z,21.97
2022-07-25T11:55:43.189Z,20.63
2022-07-25T11:58:15.380Z,20.38
2022-07-25T12:00:48.866Z,21.24
2022-07-25T12:03:21.072Z,21.42
2022-07-25T12:05:49.457Z,22.01
2022-07-25T12:08:22.986Z,20.85
2022-07-25T12:10:51.484Z,22.28
2022-07-25T12:13:30.357Z,24.05
2022-07-25T12:15:59.712Z,23.02
2022-07-25T12:18:27.460Z,23.77
2022-07-25T12:20:54.630Z,23.55
2022-07-25T12:23:22.032Z,22.96
2022-07-25T12:25:49.519Z,22.69
2022-07-25T12:28:16.653Z,22.74
2022-07-25T12:30:46.435Z,23.01
2022-07-25T12:33:14.425Z,23.73
2022-07-25T12:35:42.654Z,23.97
2022-07-25T12:38:11.285Z,24.57
2022-07-25T12:40:38.841Z,24.46
2022-07-25T12:43:06.196Z,23.96
2022-07-25T12:45:33.634Z,24.46
2022-07-25T12:48:00.721Z,24.33
2022-07-25T12:50:27.736Z,23.51
2022-07-25T12:52:55.026Z,22.62
2022-07-25T12:55:22.270Z,22.89
2022-07-25T12:57:49.971Z,23.14
2022-07-25T13:00:21.471Z,23.48
2022-07-25T13:02:52.156Z,23.23
2022-07-25T13:05:20.372Z,23.64
2022-07-25T13:07:49.256Z,23.22
2022-07-25T13:10:20.435Z,23.16
2022-07-25T13:12:48.523Z,23.31
2022-07-25T13:15:15.802Z,23.08
2022-07-25T13:17:42.861Z,22.43
2022-07-25T13:20:11.013Z,23.36
2022-07-25T13:22:38.218Z,22.00
2022-07-25T13:25:05.953Z,23.09
2022-07-25T13:27:33.137Z,24.01
2022-07-25T13:30:00.158Z,24.53
2022-07-25T13:32:28.429Z,25.01
2022-07-25T13:34:55.682Z,23.73
2022-07-25T13:37:23.237Z,24.07
2022-07-25T13:39:50.433Z,24.65
2022-07-25T13:42:23.746Z,23.89
2022-07-25T13:44:50.895Z,23.34
2022-07-25T13:47:26.915Z,22.72
2022-07-25T13:49:57.446Z,23.28
2022-07-25T13:52:25.487Z,23.85
2022-07-25T13:54:54.222Z,23.95
2022-07-25T13:57:21.231Z,23.75
2022-07-25T13:59:48.739Z,23.41
2022-07-25T14:02:15.869Z,23.92
2022-07-25T14:04:42.857Z,23.60
2022-07-25T14:07:09.989Z,24.68
2022-07-25T14:09:37.104Z,24.11
2022-07-25T14:12:12.639Z,23.18
2022-07-25T14:14:40.753Z,23.83
2022-07-25T14:17:08.132Z,23.35
2022-07-25T14:19:35.178Z,23.60
2022-07-25T14:22:02.143Z,24.22
2022-07-25T14:24:29.181Z,23.39
2022-07-25T14:26:56.261Z,23.15
2022-07-25T14:29:27.272Z,22.14
2022-07-25T14:31:57.482Z,23.50
2022-07-25T14:34:24.621Z,24.10
2022-07-25T14:36:51.856Z,23.90
2022-07-25T14:39:22.132Z,24.06
2022-07-25T14:41:49.244Z,23.83
2022-07-25T14:44:16.287Z,23.69
2022-07-25T14:46:44.119Z,23.31
2022-07-25T14:49:16.580Z,23.69
2022-07-25T14:51:45.681Z,23.12
2022-07-25T14:54:12.834Z,24.12
2022-07-25T14:56:40.083Z,23.37
2022-07-25T14:59:08.363Z,23.66
2022-07-25T15:01:36.718Z,23.44
2022-07-25T15:04:04.028Z,23.86
2022-07-25T15:06:31.775Z,24.06
2022-07-25T15:08:58.974Z,23.92
2022-07-25T15:11:29.287Z,23.64
2022-07-25T15:13:57.250Z,23.99
2022-07-25T15:16:24.859Z,22.94
2022-07-25T15:19:15.210Z,23.38
2022-07-25T15:21:40.448Z,23.40
2022-07-25T15:24:07.939Z,23.81
2022-07-25T15:26:35.194Z,24.27
2022-07-25T15:29:02.709Z,24.24
2022-07-25T15:31:29.930Z,23.54
2022-07-25T15:33:57.525Z,23.66
2022-07-25T15:36:29.401Z,24.42
2022-07-25T15:38:57.209Z,23.65
2022-07-25T15:41:24.247Z,24.00
2022-07-25T15:43:52.731Z,23.74
2022-07-25T15:46:19.901Z,24.14
2022-07-25T15:48:47.118Z,23.80
2022-07-25T15:51:18.999Z,23.62
2022-07-25T15:53:46.116Z,23.93
2022-07-25T15:56:16.538Z,24.00
2022-07-25T15:58:44.495Z,24.82
2022-07-25T16:01:11.821Z,24.52
2022-07-25T16:03:38.987Z,24.58
2022-07-25T16:06:06.326Z,25.08
2022-07-25T16:08:34.759Z,25.34
2022-07-25T16:11:02.629Z,25.01
2022-07-25T16:13:30.815Z,25.01
2022-07-25T16:15:57.978Z,24.41
2022-07-25T16:18:26.891Z,24.75
2022-07-25T16:20:54.074Z,25.22
2022-07-25T16:23:23.144Z,24.84
2022-07-25T16:25:50.210Z,25.53
2022-07-25T16:28:17.234Z,25.45
2022-07-25T16:30:44.278Z,24.80
2022-07-25T16:33:11.833Z,25.14
2022-07-25T16:35:38.975Z,25.43
2022-07-25T16:38:06.466Z,25.55
2022-07-25T16:40:33.536Z,25.44
2022-07-25T16:43:00.510Z,25.91
2022-07-25T16:45:28.246Z,25.82
2022-07-25T16:47:55.583Z,26.16
2022-07-25T16:50:22.687Z,25.98
2022-07-25T16:52:49.728Z,26.01
2022-07-25T16:55:17.112Z,26.28
2022-07-25T16:57:44.070Z,26.24
2022-07-25T17:00:12.001Z,25.91
2022-07-25T17:02:39.816Z,26.17
2022-07-25T17:05:07.153Z,25.98
2022-07-25T17:07:35.143Z,26.32
2022-07-25T17:10:05.576Z,26.23
2022-07-25T17:12:32.711Z,26.83
2022-07-25T17:14:59.786Z,27.04
2022-07-25T17:17:26.714Z,26.83
2022-07-25T17:19:58.071Z,26.81
2022-07-25T17:22:26.953Z,27.02
2022-07-25T17:24:54.010Z,27.27
2022-07-25T17:27:21.024Z,26.97
2022-07-25T17:29:48.011Z,26.91
2022-07-25T17:32:14.988Z,26.57
2022-07-25T17:34:42.061Z,27.32
2022-07-25T17:37:09.186Z,27.14
2022-07-25T17:39:36.206Z,27.65
2022-07-25T17:42:07.291Z,27.37
2022-07-25T17:44:35.097Z,27.04
2022-07-25T17:47:03.422Z,27.29
2022-07-25T17:49:30.844Z,26.99
2022-07-25T17:51:57.883Z,27.33
2022-07-25T17:54:24.883Z,26.96
2022-07-25T17:56:52.120Z,27.73
2022-07-25T17:59:19.183Z,27.55
2022-07-25T18:01:46.309Z,28.26
2022-07-25T18:04:14.408Z,28.17
2022-07-25T18:06:41.531Z,28.20
2022-07-25T18:09:08.917Z,27.31
2022-07-25T18:11:36.592Z,27.94
2022-07-25T18:14:03.644Z,27.90
2022-07-25T18:16:30.791Z,28.09
2022-07-25T18:18:57.899Z,28.47
2022-07-25T18:21:25.184Z,28.88
2022-07-25T18:23:52.592Z,27.81
2022-07-25T18:26:21.808Z,28.28
2022-07-25T18:28:48.907Z,28.58
2022-07-25T18:31:15.981Z,28.89
2022-07-25T18:33:43.149Z,29.25
2022-07-25T18:36:10.255Z,28.80
2022-07-25T18:38:37.783Z,28.92
2022-07-25T18:41:28.087Z,29.03
2022-07-25T18:43:53.268Z,29.38
2022-07-25T18:46:20.650Z,29.64
2022-07-25T18:48:47.998Z,29.22
2022-07-25T18:51:15.166Z,29.88
2022-07-25T18:53:47.346Z,30.09
2022-07-25T18:56:14.913Z,30.36
2022-07-25T18:58:42.048Z,29.85
2022-07-25T19:01:09.523Z,30.35
2022-07-25T19:03:37.675Z,29.99
2022-07-25T19:06:07.824Z,29.91
2022-07-25T19:08:35.458Z,30.23
2022-07-25T19:11:02.468Z,30.40
2022-07-25T19:16:16.660Z,31.16
2022-07-25T19:18:43.797Z,31.76
2022-07-25T19:21:10.923Z,31.44
2022-07-25T19:23:38.072Z,32.23
2022-07-25T19:26:06.262Z,32.38
2022-07-25T19:28:34.846Z,32.39
2022-07-25T19:31:02.164Z,32.42
2022-07-25T19:33:35.883Z,32.50
2022-07-25T19:36:04.200Z,33.13
2022-07-25T19:38:31.493Z,33.20
2022-07-25T19:40:59.070Z,32.86
2022-07-25T19:43:26.613Z,33.23
2022-07-25T19:45:53.824Z,33.49
2022-07-25T19:48:23.906Z,32.93
2022-07-25T19:50:52.383Z,33.28
2022-07-25T19:53:20.682Z,33.76
2022-07-25T19:55:51.887Z,33.61
2022-07-25T19:58:19.042Z,33.79
2022-07-25T20:00:46.126Z,34.11
2022-07-25T20:03:13.359Z,34.37
2022-07-25T20:05:42.128Z,34.58
2022-07-25T20:08:09.085Z,34.76
2022-07-25T20:10:36.088Z,34.70
2022-07-25T20:13:04.880Z,35.25
2022-07-25T20:15:32.608Z,34.57
2022-07-25T20:18:00.014Z,34.80
2022-07-25T20:20:27.782Z,35.26
2022-07-25T20:22:54.973Z,34.83
2022-07-25T20:25:22.220Z,34.93
2022-07-25T20:27:49.873Z,35.05
2022-07-25T20:30:18.291Z,34.82
2022-07-25T20:32:45.661Z,35.36
2022-07-25T20:35:12.799Z,35.08
2022-07-25T20:37:40.129Z,36.32
2022-07-25T20:40:09.779Z,35.44
2022-07-25T20:42:37.800Z,35.30
2022-07-25T20:45:07.124Z,35.82
2022-07-25T20:47:34.383Z,35.94
2022-07-25T20:50:02.219Z,36.41
2022-07-25T20:52:30.314Z,36.31
2022-07-25T20:54:57.371Z,36.39
2022-07-25T20:57:24.488Z,35.92
2022-07-25T20:59:51.452Z,36.73
2022-07-25T21:02:18.658Z,37.07
2022-07-25T21:04:48.371Z,37.03
2022-07-25T21:07:17.292Z,36.90
2022-07-25T21:09:45.121Z,37.48
2022-07-25T21:12:12.067Z,37.80
2022-07-25T21:14:39.062Z,37.76
2022-07-25T21:17:06.132Z,38.02
2022-07-25T21:19:33.501Z,37.88
2022-07-25T21:22:01.757Z,38.59
2022-07-25T21:24:28.821Z,37.94
2022-07-25T21:26:55.862Z,38.21
2022-07-25T21:29:22.877Z,38.63
2022-07-25T21:31:49.974Z,37.98
2022-07-25T21:34:19.973Z,38.58
2022-07-25T21:36:47.063Z,39.00
2022-07-25T21:39:14.519Z,39.35
2022-07-25T21:41:43.686Z,39.16
2022-07-25T21:44:11.358Z,39.94
2022-07-25T21:46:38.443Z,39.87
2022-07-25T21:49:41.514Z,39.62
2022-07-25T21:52:13.680Z,39.93
2022-07-25T21:54:42.914Z,39.88
2022-07-25T21:57:13.326Z,40.19
2022-07-25T21:59:42.672Z,40.32
2022-07-25T22:03:06.035Z,40.14
2022-07-25T22:05:33.608Z,40.23
2022-07-25T22:08:00.876Z,40.74
2022-07-25T22:10:28.103Z,40.61
2022-07-25T22:12:55.291Z,40.27
2022-07-25T22:15:22.636Z,40.38
2022-07-25T22:17:50.283Z,40.27
2022-07-25T22:20:19.842Z,40.07
2022-07-25T22:22:50.388Z,40.40
2022-07-25T22:25:17.914Z,40.73
2022-07-25T22:27:45.415Z,40.24
2022-07-25T22:30:18.458Z,40.76
2022-07-25T22:32:48.588Z,41.23
2022-07-25T22:35:16.425Z,40.57
2022-07-25T22:37:45.376Z,40.87
2022-07-25T22:40:13.383Z,40.75
2022-07-25T22:42:40.787Z,40.29
2022-07-25T22:45:09.087Z,40.37
2022-07-25T22:47:36.332Z,40.83
2022-07-25T22:50:05.485Z,41.60
2022-07-25T22:52:35.095Z,40.65
2022-07-25T22:55:02.770Z,40.50
2022-07-25T22:57:30.009Z,39.84
2022-07-25T23:00:09.878Z,39.69
2022-07-25T23:02:38.414Z,39.34
2022-07-25T23:05:07.286Z,40.01
2022-07-25T23:07:35.158Z,40.32
2022-07-25T23:10:04.184Z,40.70
2022-07-25T23:12:32.960Z,42.00
2022-07-25T23:15:00.186Z,42.20
2022-07-25T23:17:27.567Z,43.92
2022-07-25T23:19:56.515Z,44.03
2022-07-25T23:22:28.459Z,43.13
2022-07-25T23:24:56.145Z,45.27
2022-07-25T23:27:24.416Z,45.14
2022-07-25T23:29:52.411Z,44.90
2022-07-25T23:32:19.682Z,45.42
2022-07-25T23:34:46.931Z,46.18
2022-07-25T23:37:14.004Z,46.24
2022-07-25T23:39:41.083Z,45.89
2022-07-25T23:42:08.171Z,46.64
2022-07-25T23:45:21.786Z,46.36
2022-07-25T23:47:52.758Z,46.74
2022-07-25T23:50:20.363Z,45.14
2022-07-25T23:52:47.543Z,45.15
2022-07-25T23:55:14.767Z,45.23
2022-07-25T23:57:41.892Z,45.30
